createdAt,value
2023-01-30T00:00:07.828Z,4.50
2023-01-30T00:02:37.716Z,4.50
2023-01-30T00:05:04.717Z,4.50
2023-01-30T00:07:31.579Z,4.50
2023-01-30T00:09:58.732Z,4.50
2023-01-30T00:12:25.574Z,4.40
2023-01-30T00:14:52.308Z,4.40
2023-01-30T00:17:19.024Z,4.50
2023-01-30T00:19:46.916Z,4.50
2023-01-30T00:22:13.849Z,4.50
2023-01-30T00:24:40.752Z,4.60
2023-01-30T00:27:07.568Z,4.60
2023-01-30T00:29:35.883Z,4.60
2023-01-30T00:32:02.715Z,4.60
2023-01-30T00:34:29.710Z,4.60
2023-01-30T00:37:07.746Z,4.60
2023-01-30T00:39:35.023Z,4.60
2023-01-30T00:42:20.845Z,4.60
2023-01-30T00:45:07.412Z,4.70
2023-01-30T00:47:34.153Z,4.60
2023-01-30T00:50:00.889Z,4.70
2023-01-30T00:52:27.615Z,4.60
2023-01-30T00:54:54.403Z,4.70
2023-01-30T00:57:21.140Z,4.70
2023-01-30T00:59:49.599Z,4.70
2023-01-30T01:02:16.429Z,4.80
2023-01-30T01:04:43.415Z,4.80
2023-01-30T01:07:11.871Z,4.80
2023-01-30T01:09:38.695Z,4.80
2023-01-30T01:12:05.859Z,4.80
2023-01-30T01:14:32.700Z,4.80
2023-01-30T01:17:00.806Z,5.00
2023-01-30T01:19:27.851Z,4.90
2023-01-30T01:21:54.644Z,4.90
2023-01-30T01:24:21.575Z,5.00
2023-01-30T01:26:48.388Z,5.00
2023-01-30T01:29:15.882Z,5.00
2023-01-30T01:31:43.732Z,5.00
2023-01-30T01:34:10.799Z,5.00
2023-01-30T01:36:54.297Z,5.00
2023-01-30T01:39:21.499Z,5.10
2023-01-30T01:41:50.388Z,5.10
2023-01-30T01:44:17.473Z,5.10
2023-01-30T01:46:44.322Z,5.10
2023-01-30T01:49:16.971Z,5.10
2023-01-30T01:51:52.741Z,5.20
2023-01-30T01:54:23.540Z,5.20
2023-01-30T01:56:50.383Z,5.20
2023-01-30T01:59:27.971Z,5.20
2023-01-30T02:01:57.666Z,5.20
2023-01-30T02:04:46.286Z,5.20
2023-01-30T02:07:13.984Z,5.20
2023-01-30T02:09:40.788Z,5.20
2023-01-30T02:12:08.410Z,5.20
2023-01-30T02:14:35.707Z,5.30
2023-01-30T02:17:02.481Z,5.30
2023-01-30T02:19:47.681Z,5.30
2023-01-30T02:22:22.740Z,5.40
2023-01-30T02:25:08.166Z,5.40
2023-01-30T02:27:38.580Z,5.40
2023-01-30T02:30:16.375Z,5.40
2023-01-30T02:33:02.174Z,5.40
2023-01-30T02:35:43.397Z,5.40
2023-01-30T02:38:29.086Z,5.50
2023-01-30T02:40:56.650Z,5.50
2023-01-30T02:43:28.535Z,5.50
2023-01-30T02:46:14.167Z,5.50
2023-01-30T02:48:43.380Z,5.50
2023-01-30T02:51:16.921Z,5.50
2023-01-30T02:53:43.799Z,5.50
2023-01-30T02:56:10.727Z,5.60
2023-01-30T02:58:41.525Z,5.50
2023-01-30T03:01:11.598Z,5.60
2023-01-30T03:03:57.310Z,5.60
2023-01-30T03:06:33.301Z,5.60
2023-01-30T03:09:06.254Z,5.70
2023-01-30T03:11:41.885Z,5.70
2023-01-30T03:14:12.961Z,5.70
2023-01-30T03:16:40.883Z,5.80
2023-01-30T03:19:12.420Z,5.80
2023-01-30T03:21:45.651Z,5.80
2023-01-30T03:24:13.043Z,5.80
2023-01-30T03:26:43.326Z,5.80
2023-01-30T03:29:10.065Z,5.80
2023-01-30T03:31:36.868Z,5.80
2023-01-30T03:34:04.448Z,5.90
2023-01-30T03:36:32.362Z,5.90
2023-01-30T03:38:59.329Z,5.90
2023-01-30T03:41:26.207Z,5.90
2023-01-30T03:43:54.356Z,6.00
2023-01-30T03:46:21.296Z,5.90
2023-01-30T03:48:48.532Z,6.00
2023-01-30T03:51:16.597Z,6.00
2023-01-30T03:53:43.425Z,6.00
2023-01-30T03:56:11.666Z,6.00
2023-01-30T03:58:39.049Z,6.10
2023-01-30T04:01:22.367Z,6.00
2023-01-30T04:03:49.154Z,6.10
2023-01-30T04:06:16.545Z,6.10
2023-01-30T04:08:44.183Z,6.10
2023-01-30T04:11:20.954Z,6.10
2023-01-30T04:13:47.924Z,6.10
2023-01-30T04:16:14.811Z,6.20
2023-01-30T04:19:00.043Z,6.10
2023-01-30T04:21:30.672Z,6.20
2023-01-30T04:23:58.039Z,6.20
2023-01-30T04:26:24.888Z,6.30
2023-01-30T04:28:51.831Z,6.30
2023-01-30T04:31:18.825Z,6.30
2023-01-30T04:34:06.663Z,6.30
2023-01-30T04:36:34.992Z,6.40
2023-01-30T04:39:01.823Z,6.40
2023-01-30T04:41:30.630Z,6.40
2023-01-30T04:44:00.388Z,6.40
2023-01-30T04:46:36.081Z,6.40
2023-01-30T04:49:03.349Z,6.40
2023-01-30T04:51:30.349Z,6.40
2023-01-30T04:53:58.690Z,6.40
2023-01-30T04:56:25.452Z,6.40
2023-01-30T04:58:53.218Z,6.40
2023-01-30T05:01:29.799Z,6.30
2023-01-30T05:03:56.921Z,6.30
2023-01-30T05:06:24.569Z,6.30
2023-01-30T05:08:52.188Z,6.30
2023-01-30T05:11:19.444Z,6.30
2023-01-30T05:13:46.221Z,6.30
2023-01-30T05:16:13.584Z,6.30
2023-01-30T05:18:40.291Z,6.30
2023-01-30T05:21:08.035Z,6.20
2023-01-30T05:23:34.998Z,6.20
2023-01-30T05:26:02.077Z,6.20
2023-01-30T05:28:29.301Z,6.20
2023-01-30T05:31:02.722Z,6.20
2023-01-30T05:33:29.610Z,6.20
2023-01-30T05:35:56.464Z,6.20
2023-01-30T05:38:23.467Z,6.20
2023-01-30T05:41:06.478Z,6.10
2023-01-30T05:43:33.754Z,6.10
2023-01-30T05:46:01.334Z,6.00
2023-01-30T05:48:28.752Z,6.00
2023-01-30T05:50:57.251Z,6.00
2023-01-30T05:53:24.813Z,6.00
2023-01-30T05:56:04.888Z,5.90
2023-01-30T05:58:32.095Z,5.90
2023-01-30T06:01:02.850Z,5.80
2023-01-30T06:03:29.597Z,5.80
2023-01-30T06:05:57.551Z,5.80
2023-01-30T06:08:24.376Z,5.80
2023-01-30T06:10:51.089Z,5.80
2023-01-30T06:13:18.014Z,5.70
2023-01-30T06:15:45.057Z,5.70
2023-01-30T06:20:58.892Z,5.70
2023-01-30T06:23:26.066Z,5.60
2023-01-30T06:25:53.367Z,5.60
2023-01-30T06:28:20.520Z,5.60
2023-01-30T06:30:47.817Z,5.70
2023-01-30T06:33:14.934Z,5.60
2023-01-30T06:35:42.543Z,5.60
2023-01-30T06:38:11.427Z,5.60
2023-01-30T06:40:38.444Z,5.50
2023-01-30T06:43:05.293Z,5.60
2023-01-30T06:45:32.061Z,5.60
2023-01-30T06:47:58.897Z,5.60
2023-01-30T06:50:26.683Z,5.60
2023-01-30T06:52:54.917Z,5.50
2023-01-30T06:55:22.937Z,5.60
2023-01-30T06:57:53.101Z,5.50
2023-01-30T07:00:20.614Z,5.50
2023-01-30T07:02:58.922Z,5.50
2023-01-30T07:05:26.291Z,5.50
2023-01-30T07:07:53.228Z,5.40
2023-01-30T07:10:20.248Z,5.40
2023-01-30T07:12:47.699Z,5.40
2023-01-30T07:15:14.505Z,5.40
2023-01-30T07:17:42.010Z,5.40
2023-01-30T07:20:10.050Z,5.40
2023-01-30T07:22:36.931Z,5.40
2023-01-30T07:25:04.022Z,5.40
2023-01-30T07:27:30.749Z,5.40
2023-01-30T07:29:57.512Z,5.30
2023-01-30T07:32:24.353Z,5.30
2023-01-30T07:34:51.082Z,5.30
2023-01-30T07:37:17.784Z,5.30
2023-01-30T07:39:44.583Z,5.30
2023-01-30T07:42:11.522Z,5.30
2023-01-30T07:44:40.822Z,5.30
2023-01-30T07:47:07.702Z,5.40
2023-01-30T07:49:34.562Z,5.40
2023-01-30T07:52:01.296Z,5.40
2023-01-30T07:54:28.049Z,5.40
2023-01-30T07:56:54.825Z,5.40
2023-01-30T07:59:21.600Z,5.50
2023-01-30T08:01:48.330Z,5.50
2023-01-30T08:04:15.143Z,5.50
2023-01-30T08:06:42.381Z,5.50
2023-01-30T08:09:09.118Z,5.50
2023-01-30T08:11:35.855Z,5.50
2023-01-30T08:14:02.619Z,5.50
2023-01-30T08:16:32.165Z,5.50
2023-01-30T08:18:59.104Z,5.50
2023-01-30T08:21:25.975Z,5.50
2023-01-30T08:23:52.697Z,5.40
2023-01-30T08:26:19.599Z,5.50
2023-01-30T08:28:46.427Z,5.50
2023-01-30T08:31:13.539Z,5.50
2023-01-30T08:33:40.436Z,5.50
2023-01-30T08:36:07.381Z,5.50
2023-01-30T08:38:34.150Z,5.60
2023-01-30T08:41:01.197Z,5.60
2023-01-30T08:43:28.200Z,5.60
2023-01-30T08:45:55.350Z,5.60
2023-01-30T08:48:22.393Z,5.60
2023-01-30T08:50:53.242Z,5.60
2023-01-30T08:53:20.148Z,5.60
2023-01-30T08:55:49.803Z,5.70
2023-01-30T08:58:16.517Z,5.70
2023-01-30T09:00:45.353Z,5.70
2023-01-30T09:03:13.841Z,5.80
2023-01-30T09:05:40.889Z,5.80
2023-01-30T09:08:07.650Z,5.80
2023-01-30T09:10:34.509Z,5.70
2023-01-30T09:13:01.259Z,5.70
2023-01-30T09:15:28.056Z,5.70
2023-01-30T09:17:54.818Z,5.70
2023-01-30T09:20:21.654Z,5.70
2023-01-30T09:22:48.451Z,5.60
2023-01-30T09:25:15.214Z,5.70
2023-01-30T09:27:44.463Z,5.70
2023-01-30T09:30:11.866Z,5.70
2023-01-30T09:32:38.651Z,5.80
2023-01-30T09:35:05.475Z,5.80
2023-01-30T09:37:32.210Z,5.90
2023-01-30T09:39:58.933Z,5.90
2023-01-30T09:42:45.547Z,5.90
2023-01-30T09:45:28.159Z,5.90
2023-01-30T09:48:07.024Z,6.00
2023-01-30T09:50:39.776Z,6.00
2023-01-30T09:53:25.838Z,6.00
2023-01-30T09:55:52.657Z,6.00
2023-01-30T09:58:20.686Z,6.10
2023-01-30T10:00:48.448Z,6.10
2023-01-30T10:03:17.344Z,6.10
2023-01-30T10:05:48.804Z,6.10
2023-01-30T10:08:35.799Z,6.10
2023-01-30T10:11:12.106Z,6.10
2023-01-30T10:13:48.134Z,6.00
2023-01-30T10:16:14.927Z,6.00
2023-01-30T10:18:44.687Z,6.00
2023-01-30T10:21:17.041Z,6.00
2023-01-30T10:23:53.471Z,6.00
2023-01-30T10:26:25.087Z,5.90
2023-01-30T10:29:06.703Z,6.00
2023-01-30T10:31:41.462Z,6.00
2023-01-30T10:34:14.494Z,5.90
2023-01-30T10:36:45.062Z,5.80
2023-01-30T10:39:30.560Z,5.70
2023-01-30T10:42:03.556Z,5.70
2023-01-30T10:44:30.386Z,5.80
2023-01-30T10:46:57.087Z,5.90
2023-01-30T10:49:27.687Z,5.90
2023-01-30T10:52:04.424Z,5.80
2023-01-30T10:54:40.577Z,5.80
2023-01-30T10:57:08.066Z,5.70
2023-01-30T10:59:53.440Z,5.70
2023-01-30T11:02:25.612Z,5.60
2023-01-30T11:04:58.279Z,5.50
2023-01-30T11:07:25.544Z,5.40
2023-01-30T11:09:52.268Z,5.40
2023-01-30T11:12:19.035Z,5.30
2023-01-30T11:14:53.112Z,5.30
2023-01-30T11:17:21.397Z,5.30
2023-01-30T11:19:55.622Z,5.20
2023-01-30T11:22:25.533Z,5.20
2023-01-30T11:25:00.177Z,5.10
2023-01-30T11:27:34.331Z,5.10
2023-01-30T11:30:10.315Z,5.10
2023-01-30T11:32:37.194Z,5.10
2023-01-30T11:35:07.135Z,5.10
2023-01-30T11:37:35.421Z,5.10
2023-01-30T11:40:18.009Z,5.10
2023-01-30T11:42:46.293Z,5.10
2023-01-30T11:45:17.928Z,5.10
2023-01-30T11:47:57.251Z,5.10
2023-01-30T11:50:30.839Z,5.20
2023-01-30T11:53:03.971Z,5.20
2023-01-30T11:55:35.043Z,5.30
2023-01-30T11:58:02.151Z,5.30
2023-01-30T12:00:37.298Z,5.40
2023-01-30T12:03:06.687Z,5.40
2023-01-30T12:05:34.690Z,5.50
2023-01-30T12:08:24.679Z,5.50
2023-01-30T12:11:01.472Z,5.50
2023-01-30T12:13:31.176Z,5.60
2023-01-30T12:16:02.524Z,5.60
2023-01-30T12:18:31.353Z,5.60
2023-01-30T12:20:58.254Z,5.60
2023-01-30T12:23:34.213Z,5.60
2023-01-30T12:26:27.335Z,5.50
2023-01-30T12:29:00.127Z,5.50
2023-01-30T12:32:05.571Z,5.50
2023-01-30T12:34:32.581Z,5.50
2023-01-30T12:37:04.854Z,5.50
2023-01-30T12:39:49.836Z,5.50
2023-01-30T12:42:31.937Z,5.50
2023-01-30T12:45:05.999Z,5.60
2023-01-30T12:47:44.814Z,5.60
2023-01-30T12:50:15.018Z,5.70
2023-01-30T12:52:48.035Z,5.70
2023-01-30T12:55:21.338Z,5.80
2023-01-30T12:57:53.265Z,5.80
2023-01-30T13:00:20.374Z,5.90
2023-01-30T13:03:03.974Z,5.90
2023-01-30T13:05:53.917Z,6.00
2023-01-30T13:08:30.953Z,6.10
2023-01-30T13:11:14.788Z,6.20
2023-01-30T13:13:53.811Z,6.20
2023-01-30T13:16:46.647Z,6.20
2023-01-30T13:19:18.049Z,6.20
2023-01-30T13:21:55.183Z,6.20
2023-01-30T13:24:31.264Z,6.20
2023-01-30T13:27:00.389Z,6.20
2023-01-30T13:29:32.860Z,6.20
2023-01-30T13:32:02.813Z,6.20
2023-01-30T13:34:29.740Z,6.20
2023-01-30T13:37:06.682Z,6.30
2023-01-30T13:39:36.506Z,6.30
2023-01-30T13:42:24.321Z,6.30
2023-01-30T13:44:51.723Z,6.30
2023-01-30T13:47:30.731Z,6.40
2023-01-30T13:50:03.591Z,6.40
2023-01-30T13:52:33.702Z,6.40
2023-01-30T13:55:06.711Z,6.40
2023-01-30T13:57:42.710Z,6.40
2023-01-30T14:00:27.992Z,6.30
2023-01-30T14:03:04.054Z,6.30
2023-01-30T14:05:49.705Z,6.30
2023-01-30T14:08:30.347Z,6.30
2023-01-30T14:10:57.577Z,6.40
2023-01-30T14:13:25.401Z,6.40
2023-01-30T14:16:02.687Z,6.40
2023-01-30T14:18:31.726Z,6.40
2023-01-30T14:21:20.235Z,6.40
2023-01-30T14:23:57.560Z,6.40
2023-01-30T14:26:44.568Z,6.50
2023-01-30T14:29:11.695Z,6.50
2023-01-30T14:31:46.773Z,6.50
2023-01-30T14:34:36.532Z,6.50
2023-01-30T14:37:05.153Z,6.50
2023-01-30T14:39:39.286Z,6.60
2023-01-30T14:42:18.976Z,6.60
2023-01-30T14:45:16.555Z,6.60
2023-01-30T14:47:47.248Z,6.70
2023-01-30T14:50:20.143Z,6.70
2023-01-30T14:52:47.312Z,6.70
2023-01-30T14:55:25.535Z,6.70
2023-01-30T14:57:57.668Z,6.80
2023-01-30T15:00:26.764Z,6.80
2023-01-30T15:03:01.748Z,6.80
2023-01-30T15:05:30.919Z,6.80
2023-01-30T15:08:02.575Z,6.80
2023-01-30T15:10:41.622Z,6.70
2023-01-30T15:13:20.784Z,6.70
2023-01-30T15:15:49.461Z,6.70
2023-01-30T15:18:29.864Z,6.60
2023-01-30T15:21:02.755Z,6.70
2023-01-30T15:23:29.610Z,6.70
2023-01-30T15:25:59.645Z,6.60
2023-01-30T15:28:38.781Z,6.60
2023-01-30T15:31:19.579Z,6.70
2023-01-30T15:33:47.825Z,6.60
2023-01-30T15:36:38.782Z,6.60
2023-01-30T15:39:25.831Z,6.60
2023-01-30T15:41:53.499Z,6.60
2023-01-30T15:44:32.733Z,6.60
2023-01-30T15:47:18.088Z,6.60
2023-01-30T15:49:48.179Z,6.50
2023-01-30T15:52:16.651Z,6.50
2023-01-30T15:54:53.543Z,6.50
2023-01-30T15:57:26.036Z,6.50
2023-01-30T15:59:54.345Z,6.40
2023-01-30T16:02:42.336Z,6.40
2023-01-30T16:05:18.248Z,6.40
2023-01-30T16:07:46.541Z,6.40
2023-01-30T16:10:15.438Z,6.40
2023-01-30T16:12:42.645Z,6.40
2023-01-30T16:15:25.284Z,6.30
2023-01-30T16:17:57.536Z,6.30
2023-01-30T16:20:24.389Z,6.30
2023-01-30T16:22:54.414Z,6.30
2023-01-30T16:25:29.811Z,6.30
2023-01-30T16:28:01.344Z,6.30
2023-01-30T16:30:29.406Z,6.30
2023-01-30T16:32:56.483Z,6.20
2023-01-30T16:35:26.895Z,6.20
2023-01-30T16:37:56.019Z,6.30
2023-01-30T16:40:25.371Z,6.20
2023-01-30T16:43:04.774Z,6.30
2023-01-30T16:45:34.758Z,6.20
2023-01-30T16:48:24.256Z,6.20
2023-01-30T16:51:00.400Z,6.20
2023-01-30T16:53:28.790Z,6.20
2023-01-30T16:55:58.643Z,6.20
2023-01-30T16:58:34.245Z,6.20
2023-01-30T17:01:02.162Z,6.10
2023-01-30T17:03:31.604Z,6.10
2023-01-30T17:05:59.029Z,6.10
2023-01-30T17:08:58.870Z,6.00
2023-01-30T17:11:28.680Z,6.00
2023-01-30T17:14:09.364Z,6.00
2023-01-30T17:16:36.133Z,6.00
2023-01-30T17:19:03.222Z,6.00
2023-01-30T17:21:50.258Z,6.00
2023-01-30T17:24:18.399Z,6.00
2023-01-30T17:26:46.290Z,6.00
2023-01-30T17:29:23.870Z,6.00
2023-01-30T17:32:01.066Z,5.90
2023-01-30T17:34:28.878Z,5.80
2023-01-30T17:36:56.167Z,5.80
2023-01-30T17:39:25.584Z,5.80
2023-01-30T17:41:52.656Z,5.80
2023-01-30T17:44:19.707Z,5.80
2023-01-30T17:46:49.813Z,5.70
2023-01-30T17:49:20.757Z,5.70
2023-01-30T17:51:48.147Z,5.70
2023-01-30T17:54:17.875Z,5.70
2023-01-30T17:56:46.115Z,5.70
2023-01-30T17:59:14.093Z,5.70
2023-01-30T18:01:41.575Z,5.70
2023-01-30T18:04:08.396Z,5.70
2023-01-30T18:06:35.292Z,5.70
2023-01-30T18:09:02.331Z,5.70
2023-01-30T18:11:29.165Z,5.70
2023-01-30T18:13:55.932Z,5.70
2023-01-30T18:16:23.807Z,5.70
2023-01-30T18:18:51.058Z,5.60
2023-01-30T18:21:17.964Z,5.70
2023-01-30T18:23:44.835Z,5.60
2023-01-30T18:26:12.495Z,5.60
2023-01-30T18:28:39.527Z,5.60
2023-01-30T18:31:07.505Z,5.60
2023-01-30T18:33:34.515Z,5.60
2023-01-30T18:36:09.698Z,5.60
2023-01-30T18:38:36.566Z,5.60
2023-01-30T18:41:10.605Z,5.50
2023-01-30T18:43:37.652Z,5.50
2023-01-30T18:46:05.771Z,5.50
2023-01-30T18:48:33.173Z,5.50
2023-01-30T18:51:04.024Z,5.50
2023-01-30T18:53:30.843Z,5.50
2023-01-30T18:55:58.061Z,5.40
2023-01-30T18:58:25.026Z,5.50
2023-01-30T19:00:52.838Z,5.40
2023-01-30T19:03:19.800Z,5.40
2023-01-30T19:05:48.764Z,5.40
2023-01-30T19:11:44.799Z,5.40
2023-01-30T19:14:14.305Z,5.50
2023-01-30T19:16:41.984Z,5.50
2023-01-30T19:19:09.746Z,5.50
2023-01-30T19:21:36.769Z,5.50
2023-01-30T19:24:06.859Z,5.50
2023-01-30T19:26:34.504Z,5.50
2023-01-30T19:29:01.374Z,5.50
2023-01-30T19:31:28.517Z,5.40
2023-01-30T19:33:58.390Z,5.30
2023-01-30T19:36:26.399Z,5.30
2023-01-30T19:38:53.309Z,5.30
2023-01-30T19:41:22.307Z,5.30
2023-01-30T19:43:49.312Z,5.20
2023-01-30T19:46:16.361Z,5.30
2023-01-30T19:48:44.094Z,5.30
2023-01-30T19:51:13.541Z,5.20
2023-01-30T19:53:41.450Z,5.20
2023-01-30T19:56:10.395Z,5.20
2023-01-30T19:58:37.782Z,5.20
2023-01-30T20:01:11.416Z,5.20
2023-01-30T20:03:38.838Z,5.20
2023-01-30T20:06:06.699Z,5.10
2023-01-30T20:08:34.920Z,5.10
2023-01-30T20:11:07.161Z,5.20
2023-01-30T20:13:35.683Z,5.10
2023-01-30T20:16:06.291Z,5.10
2023-01-30T20:18:41.374Z,5.20
2023-01-30T20:21:18.501Z,5.20
2023-01-30T20:23:45.930Z,5.20
2023-01-30T20:26:48.553Z,5.30
2023-01-30T20:29:17.507Z,5.30
2023-01-30T20:31:44.597Z,5.30
2023-01-30T20:34:12.849Z,5.30
2023-01-30T20:36:39.923Z,5.30
2023-01-30T20:39:07.770Z,5.30
2023-01-30T20:41:40.527Z,5.30
2023-01-30T20:44:11.996Z,5.20
2023-01-30T20:46:42.632Z,5.20
2023-01-30T20:49:19.367Z,5.20
2023-01-30T20:51:50.146Z,5.10
2023-01-30T20:54:17.927Z,5.10
2023-01-30T20:56:47.318Z,5.10
2023-01-30T20:59:16.121Z,5.10
2023-01-30T21:02:00.232Z,5.10
2023-01-30T21:04:31.420Z,5.00
2023-01-30T21:06:58.408Z,5.00
2023-01-30T21:09:25.749Z,5.00
2023-01-30T21:11:55.426Z,4.90
2023-01-30T21:14:57.707Z,4.90
2023-01-30T21:17:55.977Z,4.90
2023-01-30T21:20:40.455Z,4.90
2023-01-30T21:23:14.845Z,4.90
2023-01-30T21:25:41.807Z,4.80
2023-01-30T21:28:08.968Z,4.90
2023-01-30T21:30:36.845Z,4.90
2023-01-30T21:33:10.099Z,4.90
2023-01-30T21:35:37.148Z,5.00
2023-01-30T21:38:22.740Z,5.00
2023-01-30T21:41:22.802Z,4.90
2023-01-30T21:43:56.205Z,4.90
2023-01-30T21:46:23.308Z,4.90
2023-01-30T21:48:50.232Z,4.90
2023-01-30T21:51:20.147Z,4.90
2023-01-30T21:53:51.130Z,5.00
2023-01-30T21:56:46.932Z,5.00
2023-01-30T21:59:52.973Z,5.00
2023-01-30T22:02:38.126Z,5.00
2023-01-30T22:05:09.194Z,5.10
2023-01-30T22:07:36.573Z,5.10
2023-01-30T22:10:03.685Z,5.10
2023-01-30T22:12:32.760Z,5.10
2023-01-30T22:15:27.253Z,5.10
2023-01-30T22:17:58.436Z,5.10
2023-01-30T22:20:31.641Z,5.00
2023-01-30T22:22:58.977Z,5.00
2023-01-30T22:25:58.368Z,5.00
2023-01-30T22:29:00.272Z,5.00
2023-01-30T22:35:19.700Z,4.90
2023-01-30T22:37:54.946Z,4.90
2023-01-30T22:40:30.969Z,4.90
2023-01-30T22:42:57.813Z,4.90
2023-01-30T22:45:26.000Z,4.90
2023-01-30T22:47:53.061Z,4.90
2023-01-30T22:50:24.036Z,4.80
2023-01-30T22:52:51.022Z,4.80
2023-01-30T22:55:18.346Z,4.80
2023-01-30T22:57:45.316Z,4.80
2023-01-30T23:00:12.382Z,4.80
2023-01-30T23:02:39.487Z,4.70
2023-01-30T23:05:19.091Z,4.80
2023-01-30T23:07:46.093Z,4.80
2023-01-30T23:10:17.162Z,4.80
2023-01-30T23:13:02.816Z,4.70
2023-01-30T23:15:32.355Z,4.70
2023-01-30T23:18:23.238Z,4.70
2023-01-30T23:20:51.508Z,4.70
2023-01-30T23:23:18.372Z,4.70
2023-01-30T23:25:45.456Z,4.70
2023-01-30T23:28:12.526Z,4.70
2023-01-30T23:30:39.360Z,4.70
2023-01-30T23:33:06.519Z,4.70
2023-01-30T23:35:34.314Z,4.70
2023-01-30T23:38:24.223Z,4.70
2023-01-30T23:40:51.151Z,4.70
2023-01-30T23:43:18.884Z,4.70
2023-01-30T23:45:45.764Z,4.70
2023-01-30T23:48:12.727Z,4.70
2023-01-30T23:50:40.126Z,4.70
2023-01-30T23:53:07.963Z,4.70
2023-01-30T23:55:35.104Z,4.70
2023-01-30T23:58:02.185Z,4.70
